sensor_id;sensor_type;location;lat;lon;timestamp;P1;durP1;ratioP1;P2;durP2;ratioP2
58244;SDS011;44550;43.864;25.986;2023-12-29T00:03:35;34.13;;;20.35;;
58244;SDS011;44550;43.864;25.986;2023-12-29T00:07:48;29.55;;;19.15;;
58244;SDS011;44550;43.864;25.986;2023-12-29T00:12:12;37.58;;;25.45;;
58244;SDS011;44550;43.864;25.986;2023-12-29T00:16:29;36.10;;;24.45;;
58244;SDS011;44550;43.864;25.986;2023-12-29T00:20:39;39.15;;;24.48;;
58244;SDS011;44550;43.864;25.986;2023-12-29T00:24:40;35.97;;;24.48;;
58244;SDS011;44550;43.864;25.986;2023-12-29T00:28:48;37.95;;;23.42;;
58244;SDS011;44550;43.864;25.986;2023-12-29T00:33:00;34.00;;;22.88;;
58244;SDS011;44550;43.864;25.986;2023-12-29T00:37:09;36.35;;;22.63;;
58244;SDS011;44550;43.864;25.986;2023-12-29T00:41:09;38.00;;;23.63;;
58244;SDS011;44550;43.864;25.986;2023-12-29T00:45:23;33.55;;;22.23;;
58244;SDS011;44550;43.864;25.986;2023-12-29T00:49:41;40.95;;;22.88;;
58244;SDS011;44550;43.864;25.986;2023-12-29T00:53:49;36.55;;;23.55;;
58244;SDS011;44550;43.864;25.986;2023-12-29T00:57:51;35.33;;;21.83;;
58244;SDS011;44550;43.864;25.986;2023-12-29T01:01:56;30.15;;;20.92;;
58244;SDS011;44550;43.864;25.986;2023-12-29T01:06:01;32.05;;;19.90;;
58244;SDS011;44550;43.864;25.986;2023-12-29T01:10:10;30.05;;;19.75;;
58244;SDS011;44550;43.864;25.986;2023-12-29T01:14:13;28.92;;;19.80;;
58244;SDS011;44550;43.864;25.986;2023-12-29T01:18:19;30.83;;;20.98;;
58244;SDS011;44550;43.864;25.986;2023-12-29T01:22:21;35.78;;;22.90;;
58244;SDS011;44550;43.864;25.986;2023-12-29T01:26:26;33.08;;;21.70;;
58244;SDS011;44550;43.864;25.986;2023-12-29T01:30:40;40.28;;;22.50;;
58244;SDS011;44550;43.864;25.986;2023-12-29T01:34:52;25.80;;;19.08;;
58244;SDS011;44550;43.864;25.986;2023-12-29T01:38:57;35.03;;;22.02;;
58244;SDS011;44550;43.864;25.986;2023-12-29T01:43:04;31.17;;;22.88;;
58244;SDS011;44550;43.864;25.986;2023-12-29T01:47:13;32.97;;;21.77;;
58244;SDS011;44550;43.864;25.986;2023-12-29T01:51:23;30.70;;;20.55;;
58244;SDS011;44550;43.864;25.986;2023-12-29T01:55:41;34.40;;;21.60;;
58244;SDS011;44550;43.864;25.986;2023-12-29T01:59:49;37.13;;;23.30;;
58244;SDS011;44550;43.864;25.986;2023-12-29T02:03:54;39.05;;;22.48;;
58244;SDS011;44550;43.864;25.986;2023-12-29T02:08:19;38.85;;;25.52;;
58244;SDS011;44550;43.864;25.986;2023-12-29T02:17:05;35.38;;;20.10;;
58244;SDS011;44550;43.864;25.986;2023-12-29T02:21:13;37.25;;;21.40;;
58244;SDS011;44550;43.864;25.986;2023-12-29T02:25:23;33.00;;;21.58;;
58244;SDS011;44550;43.864;25.986;2023-12-29T02:29:34;32.92;;;21.25;;
58244;SDS011;44550;43.864;25.986;2023-12-29T02:33:41;29.10;;;20.80;;
58244;SDS011;44550;43.864;25.986;2023-12-29T02:37:55;39.75;;;23.40;;
58244;SDS011;44550;43.864;25.986;2023-12-29T02:42:16;35.75;;;22.95;;
58244;SDS011;44550;43.864;25.986;2023-12-29T02:46:24;38.25;;;22.55;;
58244;SDS011;44550;43.864;25.986;2023-12-29T02:50:27;37.28;;;25.85;;
58244;SDS011;44550;43.864;25.986;2023-12-29T02:54:51;48.13;;;26.10;;
58244;SDS011;44550;43.864;25.986;2023-12-29T02:59:09;42.20;;;26.42;;
58244;SDS011;44550;43.864;25.986;2023-12-29T03:03:47;41.97;;;27.75;;
58244;SDS011;44550;43.864;25.986;2023-12-29T03:08:00;42.53;;;29.92;;
58244;SDS011;44550;43.864;25.986;2023-12-29T03:12:23;53.08;;;31.70;;
58244;SDS011;44550;43.864;25.986;2023-12-29T03:16:42;51.53;;;32.60;;
58244;SDS011;44550;43.864;25.986;2023-12-29T03:20:53;52.17;;;35.35;;
58244;SDS011;44550;43.864;25.986;2023-12-29T03:24:55;51.47;;;35.22;;
58244;SDS011;44550;43.864;25.986;2023-12-29T03:28:59;50.15;;;33.08;;
58244;SDS011;44550;43.864;25.986;2023-12-29T03:33:04;40.78;;;29.40;;
58244;SDS011;44550;43.864;25.986;2023-12-29T03:37:06;43.50;;;27.48;;
58244;SDS011;44550;43.864;25.986;2023-12-29T03:41:15;44.47;;;27.15;;
58244;SDS011;44550;43.864;25.986;2023-12-29T03:45:18;34.22;;;23.42;;
58244;SDS011;44550;43.864;25.986;2023-12-29T03:49:22;35.72;;;22.23;;
58244;SDS011;44550;43.864;25.986;2023-12-29T03:53:32;35.95;;;21.85;;
58244;SDS011;44550;43.864;25.986;2023-12-29T03:57:34;34.10;;;20.65;;
58244;SDS011;44550;43.864;25.986;2023-12-29T04:01:35;33.65;;;20.55;;
58244;SDS011;44550;43.864;25.986;2023-12-29T04:05:46;33.25;;;19.80;;
58244;SDS011;44550;43.864;25.986;2023-12-29T04:09:47;30.15;;;20.48;;
58244;SDS011;44550;43.864;25.986;2023-12-29T04:13:52;31.00;;;18.85;;
58244;SDS011;44550;43.864;25.986;2023-12-29T04:18:17;59.53;;;33.38;;
58244;SDS011;44550;43.864;25.986;2023-12-29T04:22:35;31.02;;;21.13;;
58244;SDS011;44550;43.864;25.986;2023-12-29T04:26:44;29.98;;;20.60;;
58244;SDS011;44550;43.864;25.986;2023-12-29T04:30:48;67.17;;;37.60;;
58244;SDS011;44550;43.864;25.986;2023-12-29T04:34:52;34.30;;;21.88;;
58244;SDS011;44550;43.864;25.986;2023-12-29T04:39:06;32.85;;;22.90;;
58244;SDS011;44550;43.864;25.986;2023-12-29T04:47:12;28.80;;;17.70;;
58244;SDS011;44550;43.864;25.986;2023-12-29T04:51:21;28.50;;;17.57;;
58244;SDS011;44550;43.864;25.986;2023-12-29T04:55:38;27.25;;;18.38;;
58244;SDS011;44550;43.864;25.986;2023-12-29T04:59:39;26.30;;;16.85;;
58244;SDS011;44550;43.864;25.986;2023-12-29T05:03:44;31.05;;;17.38;;
58244;SDS011;44550;43.864;25.986;2023-12-29T05:07:48;38.38;;;24.40;;
58244;SDS011;44550;43.864;25.986;2023-12-29T05:12:02;33.40;;;19.98;;
58244;SDS011;44550;43.864;25.986;2023-12-29T05:16:09;37.97;;;23.27;;
58244;SDS011;44550;43.864;25.986;2023-12-29T05:20:19;26.73;;;17.70;;
58244;SDS011;44550;43.864;25.986;2023-12-29T05:24:22;40.38;;;29.13;;
58244;SDS011;44550;43.864;25.986;2023-12-29T05:32:47;39.97;;;28.73;;
58244;SDS011;44550;43.864;25.986;2023-12-29T05:37:11;28.05;;;18.90;;
58244;SDS011;44550;43.864;25.986;2023-12-29T05:41:21;30.75;;;19.60;;
58244;SDS011;44550;43.864;25.986;2023-12-29T05:45:35;28.15;;;16.17;;
58244;SDS011;44550;43.864;25.986;2023-12-29T05:49:43;24.73;;;15.80;;
58244;SDS011;44550;43.864;25.986;2023-12-29T05:54:00;35.28;;;19.83;;
58244;SDS011;44550;43.864;25.986;2023-12-29T05:58:26;34.10;;;20.65;;
58244;SDS011;44550;43.864;25.986;2023-12-29T06:06:55;31.58;;;17.13;;
58244;SDS011;44550;43.864;25.986;2023-12-29T06:11:13;32.03;;;16.55;;
58244;SDS011;44550;43.864;25.986;2023-12-29T06:15:33;34.65;;;18.42;;
58244;SDS011;44550;43.864;25.986;2023-12-29T06:19:48;27.35;;;17.00;;
58244;SDS011;44550;43.864;25.986;2023-12-29T06:24:05;35.10;;;18.05;;
58244;SDS011;44550;43.864;25.986;2023-12-29T06:28:14;35.70;;;19.27;;
58244;SDS011;44550;43.864;25.986;2023-12-29T06:32:20;35.25;;;20.65;;
58244;SDS011;44550;43.864;25.986;2023-12-29T06:36:31;71.05;;;41.30;;
58244;SDS011;44550;43.864;25.986;2023-12-29T06:40:37;35.80;;;21.00;;
58244;SDS011;44550;43.864;25.986;2023-12-29T06:44:51;30.60;;;18.83;;
58244;SDS011;44550;43.864;25.986;2023-12-29T06:48:56;25.58;;;17.00;;
58244;SDS011;44550;43.864;25.986;2023-12-29T06:53:12;37.50;;;21.70;;
58244;SDS011;44550;43.864;25.986;2023-12-29T06:57:18;27.75;;;17.20;;
58244;SDS011;44550;43.864;25.986;2023-12-29T07:01:20;22.33;;;13.80;;
58244;SDS011;44550;43.864;25.986;2023-12-29T07:05:27;23.88;;;15.57;;
58244;SDS011;44550;43.864;25.986;2023-12-29T07:13:42;31.13;;;15.90;;
58244;SDS011;44550;43.864;25.986;2023-12-29T07:17:48;22.98;;;15.45;;
58244;SDS011;44550;43.864;25.986;2023-12-29T07:21:57;22.57;;;18.20;;
58244;SDS011;44550;43.864;25.986;2023-12-29T07:26:05;22.45;;;16.02;;
58244;SDS011;44550;43.864;25.986;2023-12-29T07:30:13;26.33;;;14.93;;
58244;SDS011;44550;43.864;25.986;2023-12-29T07:34:26;20.67;;;14.88;;
58244;SDS011;44550;43.864;25.986;2023-12-29T07:38:36;21.60;;;13.63;;
58244;SDS011;44550;43.864;25.986;2023-12-29T07:43:09;16.55;;;12.60;;
58244;SDS011;44550;43.864;25.986;2023-12-29T07:47:42;22.73;;;13.48;;
58244;SDS011;44550;43.864;25.986;2023-12-29T07:52:21;22.05;;;13.27;;
58244;SDS011;44550;43.864;25.986;2023-12-29T07:56:36;18.60;;;13.57;;
58244;SDS011;44550;43.864;25.986;2023-12-29T08:00:54;17.17;;;11.15;;
58244;SDS011;44550;43.864;25.986;2023-12-29T08:05:24;18.65;;;13.25;;
58244;SDS011;44550;43.864;25.986;2023-12-29T08:09:48;19.17;;;13.30;;
58244;SDS011;44550;43.864;25.986;2023-12-29T08:14:11;16.58;;;12.70;;
58244;SDS011;44550;43.864;25.986;2023-12-29T08:18:17;17.92;;;11.63;;
58244;SDS011;44550;43.864;25.986;2023-12-29T08:22:29;16.85;;;13.15;;
58244;SDS011;44550;43.864;25.986;2023-12-29T08:26:47;14.98;;;11.20;;
58244;SDS011;44550;43.864;25.986;2023-12-29T08:30:53;14.90;;;10.25;;
58244;SDS011;44550;43.864;25.986;2023-12-29T08:35:09;20.10;;;11.82;;
58244;SDS011;44550;43.864;25.986;2023-12-29T08:39:22;22.33;;;12.75;;
58244;SDS011;44550;43.864;25.986;2023-12-29T08:43:38;14.50;;;10.50;;
58244;SDS011;44550;43.864;25.986;2023-12-29T08:47:57;17.27;;;11.02;;
58244;SDS011;44550;43.864;25.986;2023-12-29T08:52:02;15.98;;;9.88;;
58244;SDS011;44550;43.864;25.986;2023-12-29T08:56:19;16.08;;;10.55;;
58244;SDS011;44550;43.864;25.986;2023-12-29T09:00:51;19.75;;;11.88;;
58244;SDS011;44550;43.864;25.986;2023-12-29T09:05:15;15.68;;;10.00;;
58244;SDS011;44550;43.864;25.986;2023-12-29T09:09:52;20.55;;;11.75;;
58244;SDS011;44550;43.864;25.986;2023-12-29T09:14:03;18.38;;;11.43;;
58244;SDS011;44550;43.864;25.986;2023-12-29T09:18:27;16.60;;;10.63;;
58244;SDS011;44550;43.864;25.986;2023-12-29T09:23:03;130.23;;;54.15;;
58244;SDS011;44550;43.864;25.986;2023-12-29T09:27:28;19.13;;;10.63;;
58244;SDS011;44550;43.864;25.986;2023-12-29T09:31:49;17.80;;;11.60;;
58244;SDS011;44550;43.864;25.986;2023-12-29T09:35:54;15.80;;;10.77;;
58244;SDS011;44550;43.864;25.986;2023-12-29T09:40:08;22.35;;;16.30;;
58244;SDS011;44550;43.864;25.986;2023-12-29T09:48:29;18.05;;;10.75;;
58244;SDS011;44550;43.864;25.986;2023-12-29T09:52:39;21.42;;;12.60;;
58244;SDS011;44550;43.864;25.986;2023-12-29T09:56:53;14.18;;;10.27;;
58244;SDS011;44550;43.864;25.986;2023-12-29T10:01:05;25.02;;;14.45;;
58244;SDS011;44550;43.864;25.986;2023-12-29T10:05:11;13.88;;;8.30;;
58244;SDS011;44550;43.864;25.986;2023-12-29T10:09:17;19.13;;;11.00;;
58244;SDS011;44550;43.864;25.986;2023-12-29T10:13:27;16.17;;;10.38;;
58244;SDS011;44550;43.864;25.986;2023-12-29T10:17:47;32.17;;;14.67;;
58244;SDS011;44550;43.864;25.986;2023-12-29T10:21:54;14.55;;;9.90;;
58244;SDS011;44550;43.864;25.986;2023-12-29T10:26:16;25.00;;;11.73;;
58244;SDS011;44550;43.864;25.986;2023-12-29T10:30:20;22.13;;;10.88;;
58244;SDS011;44550;43.864;25.986;2023-12-29T10:34:34;20.08;;;10.20;;
58244;SDS011;44550;43.864;25.986;2023-12-29T10:38:43;15.05;;;10.63;;
58244;SDS011;44550;43.864;25.986;2023-12-29T10:42:52;13.63;;;10.18;;
58244;SDS011;44550;43.864;25.986;2023-12-29T10:47:09;10.25;;;8.98;;
58244;SDS011;44550;43.864;25.986;2023-12-29T10:51:18;23.13;;;11.13;;
58244;SDS011;44550;43.864;25.986;2023-12-29T10:55:28;16.20;;;10.27;;
58244;SDS011;44550;43.864;25.986;2023-12-29T10:59:32;13.43;;;9.57;;
58244;SDS011;44550;43.864;25.986;2023-12-29T11:03:39;17.17;;;10.45;;
58244;SDS011;44550;43.864;25.986;2023-12-29T11:07:43;14.82;;;10.45;;
58244;SDS011;44550;43.864;25.986;2023-12-29T11:11:50;16.55;;;10.02;;
58244;SDS011;44550;43.864;25.986;2023-12-29T11:15:56;13.97;;;10.33;;
58244;SDS011;44550;43.864;25.986;2023-12-29T11:20:09;16.92;;;9.98;;
58244;SDS011;44550;43.864;25.986;2023-12-29T11:24:18;18.15;;;10.07;;
58244;SDS011;44550;43.864;25.986;2023-12-29T11:28:46;15.50;;;9.27;;
58244;SDS011;44550;43.864;25.986;2023-12-29T11:32:49;13.30;;;8.43;;
58244;SDS011;44550;43.864;25.986;2023-12-29T11:37:15;17.50;;;10.30;;
58244;SDS011;44550;43.864;25.986;2023-12-29T11:46:09;15.02;;;9.95;;
58244;SDS011;44550;43.864;25.986;2023-12-29T11:50:52;11.35;;;8.15;;
58244;SDS011;44550;43.864;25.986;2023-12-29T11:55:09;18.52;;;9.50;;
58244;SDS011;44550;43.864;25.986;2023-12-29T11:59:23;12.93;;;8.88;;
58244;SDS011;44550;43.864;25.986;2023-12-29T12:03:44;15.65;;;13.80;;
58244;SDS011;44550;43.864;25.986;2023-12-29T12:08:04;30.52;;;18.15;;
58244;SDS011;44550;43.864;25.986;2023-12-29T12:12:37;54.42;;;34.70;;
58244;SDS011;44550;43.864;25.986;2023-12-29T12:16:50;20.58;;;12.27;;
58244;SDS011;44550;43.864;25.986;2023-12-29T12:25:01;34.95;;;28.00;;
58244;SDS011;44550;43.864;25.986;2023-12-29T12:29:05;22.05;;;16.48;;
58244;SDS011;44550;43.864;25.986;2023-12-29T12:33:25;11.13;;;9.05;;
58244;SDS011;44550;43.864;25.986;2023-12-29T12:37:41;15.55;;;10.63;;
58244;SDS011;44550;43.864;25.986;2023-12-29T12:41:49;14.77;;;9.07;;
58244;SDS011;44550;43.864;25.986;2023-12-29T12:45:59;21.95;;;13.13;;
58244;SDS011;44550;43.864;25.986;2023-12-29T12:54:22;21.98;;;12.50;;
58244;SDS011;44550;43.864;25.986;2023-12-29T12:58:24;15.82;;;8.65;;
58244;SDS011;44550;43.864;25.986;2023-12-29T13:02:30;9.57;;;6.78;;
58244;SDS011;44550;43.864;25.986;2023-12-29T13:06:55;20.92;;;13.95;;
58244;SDS011;44550;43.864;25.986;2023-12-29T13:11:08;17.73;;;11.10;;
58244;SDS011;44550;43.864;25.986;2023-12-29T13:15:22;14.85;;;10.38;;
58244;SDS011;44550;43.864;25.986;2023-12-29T13:19:55;13.52;;;7.28;;
58244;SDS011;44550;43.864;25.986;2023-12-29T13:24:05;13.50;;;6.65;;
58244;SDS011;44550;43.864;25.986;2023-12-29T13:28:17;12.77;;;7.88;;
58244;SDS011;44550;43.864;25.986;2023-12-29T13:32:22;18.13;;;13.80;;
58244;SDS011;44550;43.864;25.986;2023-12-29T13:36:29;17.47;;;12.43;;
58244;SDS011;44550;43.864;25.986;2023-12-29T13:40:45;13.55;;;6.93;;
58244;SDS011;44550;43.864;25.986;2023-12-29T13:45:02;14.75;;;8.18;;
58244;SDS011;44550;43.864;25.986;2023-12-29T13:49:11;21.38;;;11.30;;
58244;SDS011;44550;43.864;25.986;2023-12-29T13:53:17;13.05;;;8.02;;
58244;SDS011;44550;43.864;25.986;2023-12-29T13:57:36;11.80;;;9.60;;
58244;SDS011;44550;43.864;25.986;2023-12-29T14:02:03;11.23;;;7.72;;
58244;SDS011;44550;43.864;25.986;2023-12-29T14:06:42;15.30;;;8.73;;
58244;SDS011;44550;43.864;25.986;2023-12-29T14:11:06;17.98;;;11.77;;
58244;SDS011;44550;43.864;25.986;2023-12-29T14:15:15;15.55;;;9.18;;
58244;SDS011;44550;43.864;25.986;2023-12-29T14:19:33;19.50;;;11.05;;
58244;SDS011;44550;43.864;25.986;2023-12-29T14:23:42;18.15;;;9.25;;
58244;SDS011;44550;43.864;25.986;2023-12-29T14:27:51;18.02;;;9.20;;
58244;SDS011;44550;43.864;25.986;2023-12-29T14:32:13;16.15;;;9.00;;
58244;SDS011;44550;43.864;25.986;2023-12-29T14:36:14;15.63;;;9.38;;
58244;SDS011;44550;43.864;25.986;2023-12-29T14:40:21;12.82;;;8.77;;
58244;SDS011;44550;43.864;25.986;2023-12-29T14:44:40;11.73;;;8.85;;
58244;SDS011;44550;43.864;25.986;2023-12-29T14:48:49;14.32;;;8.52;;
58244;SDS011;44550;43.864;25.986;2023-12-29T14:52:59;13.63;;;8.52;;
58244;SDS011;44550;43.864;25.986;2023-12-29T14:57:02;10.10;;;7.53;;
58244;SDS011;44550;43.864;25.986;2023-12-29T15:01:26;14.43;;;7.22;;
58244;SDS011;44550;43.864;25.986;2023-12-29T15:05:39;14.63;;;12.10;;
58244;SDS011;44550;43.864;25.986;2023-12-29T15:10:11;20.17;;;12.70;;
58244;SDS011;44550;43.864;25.986;2023-12-29T15:14:18;40.63;;;29.38;;
58244;SDS011;44550;43.864;25.986;2023-12-29T15:18:23;40.70;;;19.77;;
58244;SDS011;44550;43.864;25.986;2023-12-29T15:27:49;19.70;;;14.40;;
58244;SDS011;44550;43.864;25.986;2023-12-29T15:31:51;13.93;;;10.90;;
58244;SDS011;44550;43.864;25.986;2023-12-29T15:35:53;16.25;;;11.02;;
58244;SDS011;44550;43.864;25.986;2023-12-29T15:39:57;16.50;;;10.13;;
58244;SDS011;44550;43.864;25.986;2023-12-29T15:48:58;16.15;;;10.95;;
58244;SDS011;44550;43.864;25.986;2023-12-29T15:54:32;16.60;;;11.45;;
58244;SDS011;44550;43.864;25.986;2023-12-29T15:58:46;23.05;;;15.50;;
58244;SDS011;44550;43.864;25.986;2023-12-29T16:02:47;33.17;;;24.52;;
58244;SDS011;44550;43.864;25.986;2023-12-29T16:07:10;30.33;;;21.95;;
58244;SDS011;44550;43.864;25.986;2023-12-29T16:17:25;16.88;;;8.75;;
58244;SDS011;44550;43.864;25.986;2023-12-29T16:21:47;12.25;;;9.35;;
58244;SDS011;44550;43.864;25.986;2023-12-29T16:26:16;12.80;;;8.75;;
58244;SDS011;44550;43.864;25.986;2023-12-29T16:30:42;12.93;;;10.23;;
58244;SDS011;44550;43.864;25.986;2023-12-29T18:02:10;12.98;;;8.45;;
58244;SDS011;44550;43.864;25.986;2023-12-29T18:06:11;10.80;;;8.10;;
58244;SDS011;44550;43.864;25.986;2023-12-29T18:10:11;11.65;;;8.38;;
58244;SDS011;44550;43.864;25.986;2023-12-29T18:14:17;11.25;;;8.43;;
58244;SDS011;44550;43.864;25.986;2023-12-29T18:18:21;11.35;;;7.95;;
58244;SDS011;44550;43.864;25.986;2023-12-29T18:22:24;13.88;;;8.52;;
58244;SDS011;44550;43.864;25.986;2023-12-29T18:26:41;14.50;;;9.75;;
58244;SDS011;44550;43.864;25.986;2023-12-29T18:31:12;13.18;;;8.02;;
58244;SDS011;44550;43.864;25.986;2023-12-29T18:35:39;14.52;;;7.88;;
58244;SDS011;44550;43.864;25.986;2023-12-29T18:39:55;10.40;;;7.93;;
58244;SDS011;44550;43.864;25.986;2023-12-29T18:43:57;18.77;;;7.30;;
58244;SDS011;44550;43.864;25.986;2023-12-29T18:48:08;8.32;;;6.95;;
58244;SDS011;44550;43.864;25.986;2023-12-29T18:52:15;21.48;;;11.90;;
58244;SDS011;44550;43.864;25.986;2023-12-29T18:56:45;9.38;;;6.88;;
58244;SDS011;44550;43.864;25.986;2023-12-29T19:01:06;11.57;;;7.43;;
58244;SDS011;44550;43.864;25.986;2023-12-29T19:05:16;10.18;;;6.78;;
58244;SDS011;44550;43.864;25.986;2023-12-29T19:09:24;9.77;;;7.10;;
58244;SDS011;44550;43.864;25.986;2023-12-29T19:13:37;14.32;;;7.82;;
58244;SDS011;44550;43.864;25.986;2023-12-29T19:17:42;13.85;;;8.20;;
58244;SDS011;44550;43.864;25.986;2023-12-29T19:21:56;12.18;;;7.47;;
58244;SDS011;44550;43.864;25.986;2023-12-29T19:26:13;16.23;;;7.88;;
58244;SDS011;44550;43.864;25.986;2023-12-29T19:30:36;12.20;;;6.93;;
58244;SDS011;44550;43.864;25.986;2023-12-29T19:34:58;10.43;;;6.68;;
58244;SDS011;44550;43.864;25.986;2023-12-29T19:39:07;13.07;;;7.32;;
58244;SDS011;44550;43.864;25.986;2023-12-29T19:43:12;8.68;;;6.07;;
58244;SDS011;44550;43.864;25.986;2023-12-29T19:47:16;10.32;;;6.90;;
58244;SDS011;44550;43.864;25.986;2023-12-29T19:51:22;9.10;;;6.00;;
58244;SDS011;44550;43.864;25.986;2023-12-29T19:55:33;9.52;;;6.60;;
58244;SDS011;44550;43.864;25.986;2023-12-29T19:59:52;8.82;;;6.75;;
58244;SDS011;44550;43.864;25.986;2023-12-29T20:04:09;11.27;;;6.50;;
58244;SDS011;44550;43.864;25.986;2023-12-29T20:08:27;10.02;;;6.57;;
58244;SDS011;44550;43.864;25.986;2023-12-29T20:12:41;8.45;;;6.00;;
58244;SDS011;44550;43.864;25.986;2023-12-29T20:16:46;9.27;;;6.10;;
58244;SDS011;44550;43.864;25.986;2023-12-29T20:21:07;8.32;;;6.75;;
58244;SDS011;44550;43.864;25.986;2023-12-29T20:25:27;8.43;;;5.78;;
58244;SDS011;44550;43.864;25.986;2023-12-29T20:29:31;9.13;;;6.57;;
58244;SDS011;44550;43.864;25.986;2023-12-29T20:33:37;10.38;;;6.68;;
58244;SDS011;44550;43.864;25.986;2023-12-29T20:37:46;10.45;;;6.50;;
58244;SDS011;44550;43.864;25.986;2023-12-29T20:42:02;9.40;;;7.03;;
58244;SDS011;44550;43.864;25.986;2023-12-29T20:46:11;9.25;;;6.22;;
58244;SDS011;44550;43.864;25.986;2023-12-29T20:50:25;9.85;;;6.50;;
58244;SDS011;44550;43.864;25.986;2023-12-29T20:54:37;8.73;;;6.60;;
58244;SDS011;44550;43.864;25.986;2023-12-29T20:58:45;7.38;;;5.60;;
58244;SDS011;44550;43.864;25.986;2023-12-29T21:02:58;7.68;;;6.03;;
58244;SDS011;44550;43.864;25.986;2023-12-29T21:07:06;6.53;;;5.60;;
58244;SDS011;44550;43.864;25.986;2023-12-29T21:11:20;10.93;;;6.90;;
58244;SDS011;44550;43.864;25.986;2023-12-29T21:15:31;7.82;;;5.60;;
58244;SDS011;44550;43.864;25.986;2023-12-29T21:19:36;13.00;;;8.52;;
58244;SDS011;44550;43.864;25.986;2023-12-29T21:23:49;8.70;;;6.72;;
58244;SDS011;44550;43.864;25.986;2023-12-29T21:28:05;9.50;;;6.60;;
58244;SDS011;44550;43.864;25.986;2023-12-29T21:32:28;8.93;;;6.00;;
58244;SDS011;44550;43.864;25.986;2023-12-29T21:36:52;9.85;;;6.60;;
58244;SDS011;44550;43.864;25.986;2023-12-29T21:41:26;9.97;;;7.13;;
58244;SDS011;44550;43.864;25.986;2023-12-29T21:45:33;9.13;;;6.47;;
58244;SDS011;44550;43.864;25.986;2023-12-29T21:53:48;11.20;;;6.05;;
58244;SDS011;44550;43.864;25.986;2023-12-29T21:58:03;12.13;;;6.32;;
58244;SDS011;44550;43.864;25.986;2023-12-29T22:02:15;10.52;;;6.95;;
58244;SDS011;44550;43.864;25.986;2023-12-29T22:06:22;7.82;;;5.68;;
58244;SDS011;44550;43.864;25.986;2023-12-29T22:10:27;9.55;;;5.65;;
58244;SDS011;44550;43.864;25.986;2023-12-29T22:14:38;11.13;;;6.57;;
58244;SDS011;44550;43.864;25.986;2023-12-29T22:19:24;8.60;;;6.82;;
58244;SDS011;44550;43.864;25.986;2023-12-29T22:23:36;6.95;;;5.40;;
58244;SDS011;44550;43.864;25.986;2023-12-29T22:27:56;6.90;;;5.32;;
58244;SDS011;44550;43.864;25.986;2023-12-29T22:32:09;10.88;;;7.05;;
58244;SDS011;44550;43.864;25.986;2023-12-29T22:36:20;9.73;;;6.35;;
58244;SDS011;44550;43.864;25.986;2023-12-29T22:40:38;10.77;;;8.25;;
58244;SDS011;44550;43.864;25.986;2023-12-29T22:45:00;11.40;;;7.50;;
58244;SDS011;44550;43.864;25.986;2023-12-29T22:49:11;14.43;;;7.28;;
58244;SDS011;44550;43.864;25.986;2023-12-29T22:53:14;10.05;;;5.40;;
58244;SDS011;44550;43.864;25.986;2023-12-29T22:57:27;12.45;;;7.93;;
58244;SDS011;44550;43.864;25.986;2023-12-29T23:01:32;9.00;;;5.90;;
58244;SDS011;44550;43.864;25.986;2023-12-29T23:06:06;7.38;;;5.95;;
58244;SDS011;44550;43.864;25.986;2023-12-29T23:10:30;10.30;;;5.82;;
58244;SDS011;44550;43.864;25.986;2023-12-29T23:14:53;6.30;;;5.40;;
58244;SDS011;44550;43.864;25.986;2023-12-29T23:19:14;9.00;;;6.80;;
58244;SDS011;44550;43.864;25.986;2023-12-29T23:23:28;6.28;;;5.68;;
58244;SDS011;44550;43.864;25.986;2023-12-29T23:27:38;7.72;;;6.20;;
58244;SDS011;44550;43.864;25.986;2023-12-29T23:36:38;9.82;;;6.47;;
58244;SDS011;44550;43.864;25.986;2023-12-29T23:40:57;9.07;;;7.03;;
58244;SDS011;44550;43.864;25.986;2023-12-29T23:45:08;9.05;;;6.53;;
58244;SDS011;44550;43.864;25.986;2023-12-29T23:49:30;10.75;;;8.07;;
58244;SDS011;44550;43.864;25.986;2023-12-29T23:53:58;10.18;;;7.18;;
